Kinrikimaru — JL6545 — position and weather

sailwx.info

Track history (hours):
 
Tides and Currents Weather Stations Pressure Air Temp Water Temp Dewpoint Dewpoint Depression Visibility Wind Speed Wind Dir Waves Ship Positions

Kinrikimaru

Last reported at 2014-Dec-09 08:33 UTC. Time now 2014-Dec-20 15:52 UTC.
Position N 34°38' E 134°59'.
Warning: this ship's position is 11 days out of date.

Length 76 m; draft 3.5 m.

Type: Cargo ship. MMSI: 431500615.

Date/timePositionNaut miles runAvg speedWind from/ knotsBaromVisibWave heightAir tempDewpointWater temp
2014-Dec-09 08:33N 34°38' E 134°59'9 9.5
2014-Dec-09 07:33N 34°36' E 135°10'1211.6
2014-Dec-09 06:33N 34°36' E 135°24'2 1.4
2014-Dec-09 05:16N 34°35' E 135°26'0 0.0
2014-Dec-09 04:22N 34°35' E 135°26'0 0.0
2014-Dec-09 03:28N 34°35' E 135°26'0 0.0
2014-Dec-09 02:32N 34°35' E 135°26'0 0.0
2014-Dec-09 01:32N 34°35' E 135°26'0 0.0
2014-Dec-09 00:33N 34°35' E 135°26'0 0.0
2014-Dec-08 23:33N 34°35' E 135°26'0 0.2
2014-Dec-08 21:19N 34°35' E 135°25'0 0.0
2014-Dec-08 20:25N 34°35' E 135°25'0 0.0
2014-Dec-08 19:25N 34°35' E 135°25'0 0.0
2014-Dec-08 18:31N 34°35' E 135°25'2 2.4
2014-Dec-08 17:33N 34°36' E 135°23'1212.3
2014-Dec-08 16:33N 34°35' E 135°08'9 0.2
2014-Dec-06 15:28N 34°37' E 134°58'7 7.3
2014-Dec-06 14:33N 34°36' E 135°06'1010.5
2014-Dec-06 13:33N 34°37' E 135°18'6 6.3
2014-Dec-06 12:33N 34°35' E 135°26'0 0.0
2014-Dec-06 11:19N 34°35' E 135°26'0 0.0
2014-Dec-06 10:13N 34°35' E 135°26'0 0.0
2014-Dec-06 09:25N 34°35' E 135°26'0 0.0
2014-Dec-06 08:31N 34°35' E 135°26'0 0.0
2014-Dec-06 07:31N 34°35' E 135°26'0 0.0
2014-Dec-06 06:33N 34°35' E 135°26'5 5.3
2014-Dec-06 05:33N 34°34' E 135°19'1111.4
2014-Dec-06 04:33N 34°26' E 135°10'1310.4
2014-Dec-06 03:19N 34°16' E 134°59'  
2014-Dec-03 15:33N 33°56' E 134°59'1211.7
2014-Dec-03 14:33N 34°08' E 134°58'1512.1
2014-Dec-03 13:18N 34°23' E 135°02'912.0
2014-Dec-03 12:33N 34°28' E 135°10'1211.4
2014-Dec-03 11:32N 34°36' E 135°21'4 4.1
2014-Dec-03 10:33N 34°35' E 135°26'0 0.0
2014-Dec-03 09:33N 34°35' E 135°26'0 0.0
2014-Dec-03 08:27N 34°35' E 135°26'0 0.0
2014-Dec-03 06:33N 34°35' E 135°26'0 0.0
2014-Dec-03 04:27N 34°35' E 135°26'0 0.4
2014-Dec-03 03:13N 34°35' E 135°25'5 7.8
2014-Dec-03 02:33N 34°39' E 135°21'2 1.8
2014-Dec-03 01:30N 34°40' E 135°19'0 0.0
2014-Dec-03 00:18N 34°40' E 135°19'0 0.0
2014-Dec-02 23:24N 34°40' E 135°19'0 0.0
2014-Dec-02 22:30N 34°40' E 135°19'0 0.0
2014-Dec-02 21:18N 34°40' E 135°19'0 0.0
2014-Dec-02 20:24N 34°40' E 135°19'0 0.0
2014-Dec-02 19:30N 34°40' E 135°19'0 0.0
2014-Dec-02 18:30N 34°40' E 135°19'0 0.0
2014-Dec-02 17:30N 34°40' E 135°19'0 0.0
2014-Dec-02 16:18N 34°40' E 135°19'0 0.0
2014-Dec-02 15:30N 34°40' E 135°19'0 0.0
2014-Dec-02 14:30N 34°40' E 135°19'0 0.1
2014-Dec-02 13:33N 34°40' E 135°19'1110.8
2014-Dec-02 12:32N 34°35' E 135°08'7 0.1
2014-Nov-30 09:32N 34°38' E 134°60'1111.3
2014-Nov-30 08:33N 34°36' E 135°13'1010.3
2014-Nov-30 07:33N 34°35' E 135°26'0 0.1
2014-Nov-30 06:27N 34°35' E 135°26'0 0.0
2014-Nov-30 03:33N 34°35' E 135°26'0 0.0
2014-Nov-30 02:33N 34°35' E 135°26'0 0.0
2014-Nov-30 01:33N 34°35' E 135°26'3 3.3
2014-Nov-30 00:33N 34°36' E 135°22'1212.0
2014-Nov-29 23:34N 34°28' E 135°12'1311.6
2014-Nov-29 22:25N 34°18' E 135°00'1010.8
2014-Nov-29 21:30N 34°08' E 135°00'  
Track history (hours):
 
Tides and Currents Weather Stations Pressure Air Temp Water Temp Dewpoint Dewpoint Depression Visibility Wind Speed Wind Dir Waves Ship Positions

Kinrikimaru

Last reported at 2014-Dec-09 08:33 UTC. Time now 2014-Dec-20 15:52 UTC.
Position N 34°38' E 134°59'.
Warning: this ship's position is 11 days out of date.

Length 76 m; draft 3.5 m.

Type: Cargo ship. MMSI: 431500615.

Date/timePositionNaut miles runAvg speedWind from/ knotsBaromVisibWave heightAir tempDewpointWater temp
2014-Dec-09 08:33N 34°38' E 134°59'9 9.5
2014-Dec-09 07:33N 34°36' E 135°10'1211.6
2014-Dec-09 06:33N 34°36' E 135°24'2 1.4
2014-Dec-09 05:16N 34°35' E 135°26'0 0.0
2014-Dec-09 04:22N 34°35' E 135°26'0 0.0
2014-Dec-09 03:28N 34°35' E 135°26'0 0.0
2014-Dec-09 02:32N 34°35' E 135°26'0 0.0
2014-Dec-09 01:32N 34°35' E 135°26'0 0.0
2014-Dec-09 00:33N 34°35' E 135°26'0 0.0
2014-Dec-08 23:33N 34°35' E 135°26'0 0.2
2014-Dec-08 21:19N 34°35' E 135°25'0 0.0
2014-Dec-08 20:25N 34°35' E 135°25'0 0.0
2014-Dec-08 19:25N 34°35' E 135°25'0 0.0
2014-Dec-08 18:31N 34°35' E 135°25'2 2.4
2014-Dec-08 17:33N 34°36' E 135°23'1212.3
2014-Dec-08 16:33N 34°35' E 135°08'9 0.2
2014-Dec-06 15:28N 34°37' E 134°58'7 7.3
2014-Dec-06 14:33N 34°36' E 135°06'1010.5
2014-Dec-06 13:33N 34°37' E 135°18'6 6.3
2014-Dec-06 12:33N 34°35' E 135°26'0 0.0
2014-Dec-06 11:19N 34°35' E 135°26'0 0.0
2014-Dec-06 10:13N 34°35' E 135°26'0 0.0
2014-Dec-06 09:25N 34°35' E 135°26'0 0.0
2014-Dec-06 08:31N 34°35' E 135°26'0 0.0
2014-Dec-06 07:31N 34°35' E 135°26'0 0.0
2014-Dec-06 06:33N 34°35' E 135°26'5 5.3
2014-Dec-06 05:33N 34°34' E 135°19'1111.4
2014-Dec-06 04:33N 34°26' E 135°10'1310.4
2014-Dec-06 03:19N 34°16' E 134°59'  
2014-Dec-03 15:33N 33°56' E 134°59'1211.7
2014-Dec-03 14:33N 34°08' E 134°58'1512.1
2014-Dec-03 13:18N 34°23' E 135°02'912.0
2014-Dec-03 12:33N 34°28' E 135°10'1211.4
2014-Dec-03 11:32N 34°36' E 135°21'4 4.1
2014-Dec-03 10:33N 34°35' E 135°26'0 0.0
2014-Dec-03 09:33N 34°35' E 135°26'0 0.0
2014-Dec-03 08:27N 34°35' E 135°26'0 0.0
2014-Dec-03 06:33N 34°35' E 135°26'0 0.0
2014-Dec-03 04:27N 34°35' E 135°26'0 0.4
2014-Dec-03 03:13N 34°35' E 135°25'5 7.8
2014-Dec-03 02:33N 34°39' E 135°21'2 1.8
2014-Dec-03 01:30N 34°40' E 135°19'0 0.0
2014-Dec-03 00:18N 34°40' E 135°19'0 0.0
2014-Dec-02 23:24N 34°40' E 135°19'0 0.0
2014-Dec-02 22:30N 34°40' E 135°19'0 0.0
2014-Dec-02 21:18N 34°40' E 135°19'0 0.0
2014-Dec-02 20:24N 34°40' E 135°19'0 0.0
2014-Dec-02 19:30N 34°40' E 135°19'0 0.0
2014-Dec-02 18:30N 34°40' E 135°19'0 0.0
2014-Dec-02 17:30N 34°40' E 135°19'0 0.0
2014-Dec-02 16:18N 34°40' E 135°19'0 0.0
2014-Dec-02 15:30N 34°40' E 135°19'0 0.0
2014-Dec-02 14:30N 34°40' E 135°19'0 0.1
2014-Dec-02 13:33N 34°40' E 135°19'1110.8
2014-Dec-02 12:32N 34°35' E 135°08'7 0.1
2014-Nov-30 09:32N 34°38' E 134°60'1111.3
2014-Nov-30 08:33N 34°36' E 135°13'1010.3
2014-Nov-30 07:33N 34°35' E 135°26'0 0.1
2014-Nov-30 06:27N 34°35' E 135°26'0 0.0
2014-Nov-30 03:33N 34°35' E 135°26'0 0.0
2014-Nov-30 02:33N 34°35' E 135°26'0 0.0
2014-Nov-30 01:33N 34°35' E 135°26'3 3.3
2014-Nov-30 00:33N 34°36' E 135°22'1212.0
2014-Nov-29 23:34N 34°28' E 135°12'1311.6
2014-Nov-29 22:25N 34°18' E 135°00'1010.8
2014-Nov-29 21:30N 34°08' E 135°00'  

Dump ship's entire track history